Time;durP1;ratioP1;P1;durP2;ratioP2;P2;SDS_P1;SDS_P2;PMS_P1;PMS_P2;Temp;Humidity;BMP_temperature;BMP_pressure;BME280_temperature;BME280_humidity;BME280_pressure;Samples;Min_cycle;Max_cycle;Signal;HPM_P1;HPM_P2
2022/10/21 00:00:56;;;;;;;0.38;0.38;;;;;;;3.59;65.51;94315.63;5112104;28;20034;-33
2022/10/21 00:03:23;;;;;;;0.85;0.85;;;;;;;3.33;66.46;94312.13;5111801;28;20038;-34
2022/10/21 00:05:49;;;;;;;2.05;1.95;;;;;;;3.44;65.92;94315.72;5111672;28;20034;-34
2022/10/21 00:08:16;;;;;;;1.50;1.48;;;;;;;3.42;66.08;94309.25;5111380;28;20052;-33
2022/10/21 00:10:41;;;;;;;0.70;0.70;;;;;;;3.35;66.44;94309.66;5111907;28;20027;-34
2022/10/21 00:13:07;;;;;;;1.10;0.98;;;;;;;3.17;66.99;94305.25;5111535;28;20468;-33
2022/10/21 00:15:33;;;;;;;1.02;1.02;;;;;;;3.25;66.83;94305.59;5111807;28;20503;-33
2022/10/21 00:17:58;;;;;;;0.95;0.95;;;;;;;3.31;66.43;94311.88;5111773;28;20160;-34
2022/10/21 00:20:24;;;;;;;0.22;0.22;;;;;;;3.14;66.42;94286.38;5111710;28;20126;-34
2022/10/21 00:22:49;;;;;;;0.55;0.55;;;;;;;3.32;66.12;94310.63;5111405;28;20031;-33
2022/10/21 00:25:15;;;;;;;0.70;0.70;;;;;;;3.33;65.89;94315.63;5111216;28;20023;-33
2022/10/21 00:27:40;;;;;;;1.00;1.00;;;;;;;3.30;66.20;94311.09;5111243;28;20028;-33
2022/10/21 00:30:07;;;;;;;3.20;2.40;;;;;;;3.38;66.29;94300.53;5111431;28;20027;-33
2022/10/21 00:32:33;;;;;;;1.10;1.10;;;;;;;3.23;67.00;94299.88;5111429;28;20027;-34
2022/10/21 00:34:58;;;;;;;1.20;1.20;;;;;;;3.31;66.45;94300.94;5111517;28;20480;-34
2022/10/21 00:37:24;;;;;;;0.50;0.50;;;;;;;3.19;66.71;94308.25;5110930;28;20106;-34
2022/10/21 00:39:50;;;;;;;0.40;0.40;;;;;;;3.18;66.77;94286.91;5111465;28;20027;-34
2022/10/21 00:42:19;;;;;;;1.23;1.13;;;;;;;2.90;67.19;94290.06;5111332;28;20019;-34
2022/10/21 00:45:06;;;;;;;1.70;1.60;;;;;;;3.15;67.22;94301.50;5111293;28;20031;-33
2022/10/21 00:48:18;;;;;;;6.07;3.13;;;;;;;3.20;66.64;94306.28;5111201;28;20039;-33
2022/10/21 00:50:53;;;;;;;2.90;2.53;;;;;;;3.00;66.62;94299.63;5110430;28;20036;-34
2022/10/21 00:53:19;;;;;;;1.50;1.50;;;;;;;2.96;66.78;94306.53;5110941;28;20039;-33
2022/10/21 00:55:49;;;;;;;3.03;2.83;;;;;;;2.53;68.32;94291.88;5092677;28;20389;-33
2022/10/21 00:58:16;;;;;;;2.15;1.95;;;;;;;2.67;67.97;94299.22;5092899;28;20073;-33
2022/10/21 01:00:41;;;;;;;0.30;0.30;;;;;;;2.80;67.35;94293.44;5092834;28;20084;-33
2022/10/21 01:03:07;;;;;;;1.75;1.05;;;;;;;2.80;67.54;94293.44;5110765;28;20023;-33
2022/10/21 01:05:36;;;;;;;2.50;1.70;;;;;;;2.89;66.67;94291.31;5111088;28;20031;-33
2022/10/21 01:08:01;;;;;;;15.90;3.55;;;;;;;2.94;66.67;94293.38;5092342;28;20048;-34
2022/10/21 01:10:28;;;;;;;1.98;1.88;;;;;;;3.10;66.48;94294.75;5110979;28;20027;-33
2022/10/21 01:12:56;;;;;;;1.83;1.73;;;;;;;2.87;66.47;94293.78;5110942;28;20032;-33
2022/10/21 01:15:34;;;;;;;1.17;1.08;;;;;;;2.82;66.32;94289.00;5092887;28;20036;-34
2022/10/21 01:18:30;;;;;;;0.98;0.98;;;;;;;2.67;67.63;94285.59;5111020;28;20157;-33
2022/10/21 01:21:20;;;;;;;0.70;0.70;;;;;;;2.74;66.67;94282.47;5083679;28;20066;-33
2022/10/21 01:24:26;;;;;;;3.63;3.03;;;;;;;2.81;66.28;94284.03;5110868;28;20081;-33
2022/10/21 01:27:09;;;;;;;1.42;1.42;;;;;;;2.51;66.38;94285.41;5039686;28;20040;-33
2022/10/21 01:30:06;;;;;;;4.00;3.28;;;;;;;2.47;66.48;94282.13;5103800;28;20038;-34
2022/10/21 01:32:49;;;;;;;1.80;1.77;;;;;;;2.66;66.19;94291.53;5110454;28;20015;-33
2022/10/21 01:35:21;;;;;;;0.63;0.63;;;;;;;2.58;66.97;94282.28;5110774;28;20028;-33
2022/10/21 01:38:08;;;;;;;1.38;1.38;;;;;;;2.55;67.14;94283.97;5092285;28;20027;-34
2022/10/21 01:40:38;;;;;;;0.82;0.82;;;;;;;2.50;67.27;94279.19;5110428;28;20028;-33
2022/10/21 01:43:17;;;;;;;0.90;0.90;;;;;;;2.53;67.07;94278.25;5092519;28;20047;-33
2022/10/21 01:45:50;;;;;;;2.85;1.73;;;;;;;2.51;66.13;94282.69;5092363;28;20023;-33
2022/10/21 01:48:19;;;;;;;1.85;1.35;;;;;;;2.51;66.19;94283.44;5092571;28;20078;-33
2022/10/21 01:50:50;;;;;;;0.50;0.50;;;;;;;2.62;66.00;94282.81;5095833;28;20032;-34
2022/10/21 01:53:16;;;;;;;1.63;1.52;;;;;;;2.71;65.70;94279.94;5114352;28;20055;-33
2022/10/21 01:55:43;;;;;;;0.80;0.80;;;;;;;2.54;65.74;94281.69;5096059;28;20070;-34
2022/10/21 01:58:15;;;;;;;0.80;0.80;;;;;;;2.34;66.54;94284.44;5096008;28;20031;-33
2022/10/21 02:00:41;;;;;;;2.63;2.40;;;;;;;2.31;67.21;94288.84;5096346;28;20053;-33
2022/10/21 02:03:10;;;;;;;1.15;1.05;;;;;;;2.39;66.54;94287.22;5114388;28;20543;-34
2022/10/21 02:05:36;;;;;;;0.52;0.52;;;;;;;2.07;67.21;94271.91;5114441;28;20054;-33
2022/10/21 02:08:02;;;;;;;0.98;0.98;;;;;;;2.02;67.78;94294.38;5113878;28;20043;-33
2022/10/21 02:10:32;;;;;;;1.35;1.25;;;;;;;2.24;67.26;94298.19;5114239;28;20492;-33
2022/10/21 02:12:59;;;;;;;0.88;0.85;;;;;;;2.22;67.09;94297.16;5095821;28;20023;-33
2022/10/21 02:15:26;;;;;;;1.80;1.70;;;;;;;2.20;66.12;94296.88;5113889;28;20057;-33
2022/10/21 02:17:58;;;;;;;0.73;0.73;;;;;;;2.20;66.93;94302.31;5113886;28;20019;-33
2022/10/21 02:20:25;;;;;;;1.15;1.15;;;;;;;2.26;65.84;94306.63;5113767;28;20742;-33
2022/10/21 02:22:50;;;;;;;3.45;1.63;;;;;;;2.03;67.27;94304.81;5113746;28;20038;-33
2022/10/21 02:25:20;;;;;;;2.35;2.05;;;;;;;2.07;66.64;94310.06;5113273;28;20019;-33
2022/10/21 02:27:45;;;;;;;;;;;;;;;2.20;66.87;94307.78;5114079;28;20045;-33
2022/10/21 02:30:11;;;;;;;2.28;2.17;;;;;;;2.22;66.28;94305.31;5095404;28;19908;-33
2022/10/21 02:32:57;;;;;;;6.47;0.68;;;;;;;2.06;67.54;94303.84;5113584;28;20411;-33
2022/10/21 02:35:50;;;;;;;0.85;0.85;;;;;;;1.89;67.47;94293.94;5113839;28;20031;-33
2022/10/21 02:38:25;;;;;;;0.32;0.32;;;;;;;2.01;66.85;94318.16;5095584;28;20485;-33
2022/10/21 02:40:57;;;;;;;1.35;1.35;;;;;;;1.72;67.14;94318.16;5113509;28;20023;-33
2022/10/21 02:43:32;;;;;;;1.30;1.30;;;;;;;1.67;67.46;94318.81;5095283;28;20028;-33
2022/10/21 02:46:15;;;;;;;1.63;1.52;;;;;;;1.77;67.57;94322.97;5094971;28;20063;-33
2022/10/21 02:48:46;;;;;;;1.15;1.15;;;;;;;1.74;67.35;94328.59;5095199;28;20020;-33
2022/10/21 02:51:11;;;;;;;1.50;1.48;;;;;;;1.66;67.73;94325.50;5113437;28;20047;-33
2022/10/21 02:53:37;;;;;;;1.50;1.40;;;;;;;1.46;67.29;94323.44;5113113;28;20042;-33
2022/10/21 02:56:03;;;;;;;1.02;1.02;;;;;;;1.67;67.62;94320.81;5113358;28;20015;-33
2022/10/21 02:58:28;;;;;;;0.32;0.32;;;;;;;1.71;66.79;94327.53;5112852;28;20019;-33
2022/10/21 03:00:54;;;;;;;1.40;1.30;;;;;;;1.67;67.04;94328.97;5112697;28;20470;-33
2022/10/21 03:03:19;;;;;;;0.57;0.57;;;;;;;1.53;67.46;94325.78;5113140;28;20027;-33
2022/10/21 03:05:45;;;;;;;0.40;0.40;;;;;;;1.46;67.55;94326.16;5112953;28;20026;-33
2022/10/21 03:08:11;;;;;;;0.43;0.43;;;;;;;1.66;67.49;94328.22;5112707;28;20555;-33
2022/10/21 03:10:36;;;;;;;1.02;1.02;;;;;;;1.63;66.27;94337.31;5112739;28;20028;-33
2022/10/21 03:13:02;;;;;;;0.63;0.63;;;;;;;1.70;66.79;94331.50;5113086;28;20149;-33
2022/10/21 03:15:27;;;;;;;0.55;0.55;;;;;;;1.67;66.24;94327.00;5112633;28;20399;-33
2022/10/21 03:17:53;;;;;;;0.73;0.73;;;;;;;1.43;67.07;94327.09;5112649;28;20027;-33
2022/10/21 03:20:18;;;;;;;4.63;3.33;;;;;;;1.39;67.28;94321.06;5112542;28;20068;-33
2022/10/21 03:22:44;;;;;;;0.40;0.40;;;;;;;1.26;67.20;94328.75;5112957;28;20024;-33
2022/10/21 03:25:10;;;;;;;1.10;1.10;;;;;;;1.36;67.11;94330.19;5112195;28;20016;-33
2022/10/21 03:27:36;;;;;;;0.85;0.85;;;;;;;1.08;67.95;94317.31;5112715;28;20019;-33
2022/10/21 03:30:03;;;;;;;0.65;0.65;;;;;;;1.36;67.51;94332.91;5112478;28;20024;-33
2022/10/21 03:32:28;;;;;;;0.30;0.30;;;;;;;1.19;67.72;94326.41;5094522;28;20411;-33
2022/10/21 03:34:53;;;;;;;0.85;0.85;;;;;;;1.46;67.06;94334.31;5112460;28;20028;-33
2022/10/21 03:37:19;;;;;;;0.73;0.57;;;;;;;1.45;66.99;94340.25;5112427;28;20479;-33
2022/10/21 03:39:44;;;;;;;1.67;1.58;;;;;;;1.35;67.95;94334.13;5112553;28;20568;-33
2022/10/21 03:42:10;;;;;;;1.40;1.38;;;;;;;1.28;67.74;94341.88;5112123;28;20560;-33
2022/10/21 03:44:35;;;;;;;1.08;1.08;;;;;;;1.48;66.83;94340.03;5112108;28;20506;-33
2022/10/21 03:47:01;;;;;;;3.40;3.22;;;;;;;1.39;66.58;94334.69;5112134;28;20399;-33
2022/10/21 03:49:26;;;;;;;0.88;0.88;;;;;;;1.19;66.96;94340.00;5112299;28;20055;-33
2022/10/21 03:51:51;;;;;;;2.90;2.78;;;;;;;1.15;67.19;94344.13;5112111;28;20020;-33
2022/10/21 03:54:17;;;;;;;1.48;1.38;;;;;;;0.98;67.20;94343.81;5093784;28;20015;-33
2022/10/21 03:56:43;;;;;;;3.28;3.08;;;;;;;0.82;68.02;94338.81;5112003;28;20024;-33
2022/10/21 03:59:09;;;;;;;1.85;1.70;;;;;;;0.83;68.70;94337.56;5111797;28;20087;-33
2022/10/21 04:01:34;;;;;;;0.85;0.85;;;;;;;0.87;68.76;94343.59;5111820;28;20020;-33
2022/10/21 04:04:00;;;;;;;1.05;1.05;;;;;;;0.93;69.99;94344.47;5111787;28;20068;-33
2022/10/21 04:06:25;;;;;;;2.53;2.38;;;;;;;1.13;68.53;94341.88;5111713;28;20116;-34
2022/10/21 04:08:51;;;;;;;1.05;1.05;;;;;;;1.21;68.51;94343.00;5111647;28;20015;-33
2022/10/21 04:11:16;;;;;;;1.33;1.33;;;;;;;1.20;67.96;94336.06;5111413;28;20015;-33
2022/10/21 04:13:42;;;;;;;1.05;1.05;;;;;;;1.23;67.36;94334.38;5111620;28;20480;-33
2022/10/21 04:16:12;;;;;;;0.93;0.93;;;;;;;1.29;67.12;94332.53;5111843;28;20012;-33
2022/10/21 04:18:38;;;;;;;0.95;0.95;;;;;;;1.10;68.26;94331.94;5111368;28;20053;-33
2022/10/21 04:21:03;;;;;;;3.65;3.35;;;;;;;0.92;68.91;94339.47;5111425;28;20027;-33
2022/10/21 04:23:29;;;;;;;2.42;2.25;;;;;;;1.08;68.63;94331.66;5111394;28;20023;-33
2022/10/21 04:25:54;;;;;;;6.60;5.07;;;;;;;1.26;68.44;94341.59;5111298;28;20027;-33
2022/10/21 04:28:20;;;;;;;4.82;2.28;;;;;;;1.32;67.66;94334.31;5111564;28;20038;-33
2022/10/21 04:30:45;;;;;;;3.80;3.47;;;;;;;1.38;67.81;94343.31;5111234;28;20019;-33
2022/10/21 04:33:10;;;;;;;0.63;0.63;;;;;;;1.24;68.03;94350.22;5111207;28;20028;-33
2022/10/21 04:35:39;;;;;;;1.27;1.20;;;;;;;1.28;67.35;94350.81;5111167;28;20028;-33
2022/10/21 04:38:04;;;;;;;1.77;1.75;;;;;;;1.18;67.60;94352.09;5111159;28;20038;-33
2022/10/21 04:40:29;;;;;;;2.67;2.58;;;;;;;1.07;68.38;94348.41;5111087;28;20024;-33
2022/10/21 04:42:56;;;;;;;6.93;3.22;;;;;;;1.18;68.35;94352.09;5111405;28;20035;-33
2022/10/21 04:45:21;;;;;;;7.75;3.60;;;;;;;1.16;68.42;94351.06;5111017;28;20419;-33
2022/10/21 04:47:47;;;;;;;2.35;1.73;;;;;;;1.15;68.43;94349.59;5110953;28;20084;-33
2022/10/21 04:50:12;;;;;;;2.63;2.42;;;;;;;1.36;68.14;94341.06;5111038;28;20026;-33
2022/10/21 04:52:38;;;;;;;2.25;2.15;;;;;;;1.23;67.95;94343.31;5110987;28;20487;-33
2022/10/21 04:55:04;;;;;;;1.98;1.88;;;;;;;1.11;68.47;94343.53;5111223;28;20024;-33
2022/10/21 04:57:30;;;;;;;3.78;3.58;;;;;;;1.16;68.43;94343.66;5110639;28;20026;-33
2022/10/21 04:59:55;;;;;;;4.93;4.40;;;;;;;0.89;69.46;94340.41;5111119;28;20020;-33
2022/10/21 05:02:21;;;;;;;2.38;2.30;;;;;;;0.86;70.06;94336.66;5110778;28;20345;-33
2022/10/21 05:04:47;;;;;;;5.10;4.63;;;;;;;0.98;69.83;94338.38;5111039;28;20122;-33
2022/10/21 05:07:12;;;;;;;3.05;2.78;;;;;;;1.39;70.01;94336.66;5110549;28;20039;-33
2022/10/21 05:09:38;;;;;;;3.85;3.60;;;;;;;1.35;69.21;94338.81;5110715;28;20024;-33
2022/10/21 05:12:03;;;;;;;1.58;1.50;;;;;;;1.41;70.01;94334.97;5111036;28;20024;-33
2022/10/21 05:14:29;;;;;;;4.63;4.32;;;;;;;1.37;69.78;94345.28;5110885;28;20019;-34
2022/10/21 05:16:54;;;;;;;1.23;1.23;;;;;;;1.73;69.44;94346.16;5110633;28;20518;-34
2022/10/21 05:19:20;;;;;;;1.77;1.67;;;;;;;1.90;68.52;94347.16;5110559;28;20028;-33
2022/10/21 05:21:46;;;;;;;2.63;2.53;;;;;;;1.78;69.44;94331.88;5110916;28;20039;-33
2022/10/21 05:24:12;;;;;;;7.28;6.75;;;;;;;1.89;69.30;94332.03;5113504;28;20418;-33
2022/10/21 05:26:38;;;;;;;3.22;2.47;;;;;;;2.00;68.95;94351.28;5114419;28;20491;-33
2022/10/21 05:29:03;;;;;;;3.25;3.05;;;;;;;2.00;70.15;94354.00;5114746;28;20027;-33
2022/10/21 05:31:29;;;;;;;2.67;2.47;;;;;;;1.96;70.17;94350.72;5114667;28;20031;-34
2022/10/21 05:33:54;;;;;;;6.90;6.32;;;;;;;2.15;70.23;94354.75;5114854;28;20032;-33
2022/10/21 05:36:19;;;;;;;6.05;5.55;;;;;;;2.09;70.08;94354.66;5114894;28;20099;-33
2022/10/21 05:38:45;;;;;;;3.38;2.17;;;;;;;2.05;70.89;94353.34;5114561;28;20412;-33
2022/10/21 05:41:10;;;;;;;3.35;3.15;;;;;;;1.95;70.84;94365.59;5114515;28;20020;-33
2022/10/21 05:43:36;;;;;;;4.18;3.72;;;;;;;2.17;72.07;94363.94;5114769;28;20032;-33
2022/10/21 05:46:02;;;;;;;8.35;7.53;;;;;;;2.33;71.66;94365.41;5114453;28;20027;-33
2022/10/21 05:48:28;;;;;;;7.57;6.78;;;;;;;2.58;70.85;94364.78;5114382;28;20026;-33
2022/10/21 05:50:54;;;;;;;5.07;4.68;;;;;;;2.73;70.95;94368.22;5114322;28;20027;-34
2022/10/21 05:53:22;;;;;;;6.45;6.05;;;;;;;2.59;70.72;94368.25;5114308;28;20020;-33
2022/10/21 05:56:15;;;;;;;4.65;3.42;;;;;;;2.69;71.02;94378.56;5114276;28;20027;-34
2022/10/21 05:58:41;;;;;;;0.60;0.60;;;;;;;2.79;70.96;94377.25;5114171;28;20499;-33
2022/10/21 06:01:06;;;;;;;1.38;1.33;;;;;;;2.99;70.50;94377.22;5114139;28;20019;-33
2022/10/21 06:03:33;;;;;;;2.40;2.20;;;;;;;2.92;71.84;94372.16;5114194;28;20020;-33
2022/10/21 06:06:01;;;;;;;3.78;2.47;;;;;;;3.11;71.41;94371.91;5114373;28;20144;-34
2022/10/21 06:08:27;;;;;;;3.17;2.42;;;;;;;3.39;71.58;94378.44;5114045;28;20036;-34
2022/10/21 06:11:13;;;;;;;3.53;3.35;;;;;;;3.52;70.94;94376.84;5114360;28;20047;-33
2022/10/21 06:13:39;;;;;;;1.30;1.27;;;;;;;3.64;70.48;94391.34;5114264;28;20030;-34
2022/10/21 06:16:06;;;;;;;1.85;1.75;;;;;;;3.79;69.90;94389.28;5113940;28;20433;-34
2022/10/21 06:18:31;;;;;;;1.85;1.70;;;;;;;3.90;70.28;94397.56;5114041;28;20088;-33
2022/10/21 06:20:57;;;;;;;1.25;0.98;;;;;;;4.04;69.50;94395.97;5113800;28;20659;-34
2022/10/21 06:23:23;;;;;;;1.33;1.27;;;;;;;3.99;70.00;94393.94;5114157;28;20038;-33
2022/10/21 06:25:58;;;;;;;2.42;2.15;;;;;;;4.12;69.85;94400.53;5113576;28;20035;-33
2022/10/21 06:28:24;;;;;;;1.15;1.10;;;;;;;4.28;69.88;94402.66;5113577;28;20031;-34
2022/10/21 06:30:50;;;;;;;3.08;2.88;;;;;;;4.31;70.08;94396.19;5113511;28;20023;-34
2022/10/21 06:33:15;;;;;;;2.25;2.05;;;;;;;4.36;70.21;94392.78;5113551;28;20419;-34
2022/10/21 06:35:41;;;;;;;6.82;4.13;;;;;;;4.34;70.11;94403.44;5113008;28;20030;-33
2022/10/21 06:38:06;;;;;;;2.28;2.17;;;;;;;4.44;70.47;94399.28;5113349;28;20499;-33
2022/10/21 06:40:32;;;;;;;4.50;4.05;;;;;;;4.46;70.68;94394.06;5113450;28;20020;-34
2022/10/21 06:42:57;;;;;;;2.60;2.40;;;;;;;4.61;70.86;94399.41;5113326;28;20027;-33
2022/10/21 06:45:22;;;;;;;2.92;2.72;;;;;;;4.58;70.91;94392.94;5113291;28;20077;-34
2022/10/21 06:47:48;;;;;;;0.85;0.85;;;;;;;4.79;70.84;94399.03;5113589;28;20094;-33
2022/10/21 06:50:14;;;;;;;1.75;1.65;;;;;;;5.05;70.22;94393.44;5113195;28;20039;-34
2022/10/21 06:52:39;;;;;;;1.48;1.38;;;;;;;5.20;70.08;94399.50;5113464;28;20066;-34
2022/10/21 06:55:06;;;;;;;2.60;1.33;;;;;;;5.18;70.73;94399.22;5113121;28;20027;-33
2022/10/21 06:57:31;;;;;;;1.48;1.23;;;;;;;5.34;70.21;94401.31;5113162;28;20024;-34
2022/10/21 06:59:57;;;;;;;2.25;2.15;;;;;;;5.46;71.14;94394.63;5094842;28;20034;-34
2022/10/21 07:02:25;;;;;;;1.67;1.58;;;;;;;5.64;70.96;94398.91;5113232;28;20024;-34
2022/10/21 07:04:51;;;;;;;1.35;1.25;;;;;;;5.68;71.53;94399.41;5113346;28;20038;-34
2022/10/21 07:07:18;;;;;;;2.55;2.35;;;;;;;5.86;71.61;94404.50;5112879;28;20519;-34
2022/10/21 07:09:43;;;;;;;1.40;1.30;;;;;;;6.04;70.85;94402.03;5112846;28;20030;-34
2022/10/21 07:12:09;;;;;;;2.63;1.85;;;;;;;6.20;71.70;94402.53;5112782;28;20027;-34
2022/10/21 07:14:35;;;;;;;1.85;0.93;;;;;;;6.40;71.40;94392.09;5113039;28;20314;-34
2022/10/21 07:17:00;;;;;;;0.68;0.68;;;;;;;6.81;70.76;94389.56;5112792;28;20016;-34
2022/10/21 07:19:26;;;;;;;1.33;1.23;;;;;;;7.85;69.92;94378.69;5112919;28;20019;-34
2022/10/21 07:21:51;;;;;;;7.68;2.17;;;;;;;8.67;65.14;94380.13;5112639;28;20097;-34
2022/10/21 07:24:17;;;;;;;0.88;0.82;;;;;;;9.48;62.38;94381.06;5112529;28;20038;-34
2022/10/21 07:26:42;;;;;;;1.10;1.10;;;;;;;10.57;60.57;94383.59;5112080;28;20030;-34
2022/10/21 07:29:08;;;;;;;1.15;1.15;;;;;;;12.29;56.34;94377.56;5112675;28;20106;-34
2022/10/21 07:31:35;;;;;;;1.55;1.50;;;;;;;13.23;53.57;94366.97;5112426;28;20421;-35
2022/10/21 07:34:02;;;;;;;2.47;2.15;;;;;;;14.77;48.92;94371.34;5112434;28;20035;-34
2022/10/21 07:36:30;;;;;;;5.75;5.15;;;;;;;16.09;45.25;94362.50;5112710;28;20102;-34
2022/10/21 07:38:59;;;;;;;3.50;1.65;;;;;;;16.95;43.96;94372.09;5112247;28;20084;-34
2022/10/21 07:41:29;;;;;;;1.90;1.73;;;;;;;17.73;41.94;94367.53;5112239;28;20035;-35
2022/10/21 07:43:54;;;;;;;2.83;2.63;;;;;;;17.92;40.35;94361.38;5112234;28;20034;-34
2022/10/21 07:46:20;;;;;;;4.53;2.35;;;;;;;18.18;40.83;94361.44;5111482;28;20411;-34
2022/10/21 07:48:46;;;;;;;1.75;1.65;;;;;;;18.92;38.51;94355.44;5112162;28;20043;-35
2022/10/21 07:51:14;;;;;;;2.47;1.95;;;;;;;19.94;37.70;94355.44;5112307;28;20027;-35
2022/10/21 07:53:40;;;;;;;1.63;1.52;;;;;;;20.12;37.80;94365.22;5111965;28;20027;-34
2022/10/21 07:56:11;;;;;;;12.38;4.57;;;;;;;21.04;36.21;94357.88;5112244;28;20034;-35
2022/10/21 07:58:36;;;;;;;0.65;0.65;;;;;;;21.11;34.98;94365.34;5112180;28;20062;-35
2022/10/21 08:01:04;;;;;;;1.25;1.15;;;;;;;19.84;36.79;94363.13;5111873;28;20093;-34
2022/10/21 08:03:30;;;;;;;1.45;1.17;;;;;;;19.36;37.56;94355.31;5112067;28;20442;-34
2022/10/21 08:05:56;;;;;;;1.10;0.88;;;;;;;18.51;39.42;94347.28;5111859;28;20032;-34
2022/10/21 08:08:22;;;;;;;0.75;0.75;;;;;;;18.26;39.29;94361.34;5111545;28;20052;-34
2022/10/21 08:10:49;;;;;;;1.90;1.80;;;;;;;17.98;40.27;94350.69;5111691;28;20674;-34
2022/10/21 08:13:15;;;;;;;1.00;1.00;;;;;;;18.34;39.25;94361.25;5111678;28;20034;-34
2022/10/21 08:15:49;;;;;;;0.75;0.75;;;;;;;18.18;40.20;94347.47;5111526;28;20031;-34
2022/10/21 08:18:15;;;;;;;1.70;1.25;;;;;;;18.38;40.18;94356.72;5111553;28;20505;-34
2022/10/21 08:20:42;;;;;;;1.73;1.63;;;;;;;18.70;38.64;94358.56;5111441;28;20027;-35
2022/10/21 08:23:09;;;;;;;0.68;0.68;;;;;;;18.55;38.65;94348.31;5111515;28;20032;-34
2022/10/21 08:25:35;;;;;;;0.77;0.77;;;;;;;18.52;39.35;94349.47;5110930;28;20034;-34
2022/10/21 08:28:02;;;;;;;0.63;0.63;;;;;;;18.11;39.47;94344.75;5111199;28;20028;-34
2022/10/21 08:30:31;;;;;;;0.40;0.40;;;;;;;18.18;39.08;94355.84;5111576;28;20030;-34
2022/10/21 08:32:58;;;;;;;0.60;0.60;;;;;;;18.51;38.73;94338.88;5111259;28;20620;-34
2022/10/21 08:35:24;;;;;;;2.13;1.27;;;;;;;18.49;38.45;94344.31;5111606;28;20050;-34
2022/10/21 08:37:50;;;;;;;1.35;1.25;;;;;;;17.80;40.30;94347.16;5093213;28;20027;-34
2022/10/21 08:40:17;;;;;;;0.80;0.77;;;;;;;18.17;39.77;94345.97;5111164;28;20107;-34
2022/10/21 08:42:44;;;;;;;1.48;1.38;;;;;;;18.11;39.39;94339.91;5093285;28;20035;-34
2022/10/21 08:45:32;;;;;;;2.95;1.00;;;;;;;18.23;39.11;94342.19;5110969;28;20032;-34
2022/10/21 08:48:02;;;;;;;0.77;0.77;;;;;;;18.54;39.53;94335.66;5061303;28;20031;-34
2022/10/21 08:50:34;;;;;;;1.10;1.10;;;;;;;18.61;38.85;94336.88;5111000;28;20063;-34
2022/10/21 08:53:14;;;;;;;1.58;1.48;;;;;;;18.26;38.80;94341.78;5092903;28;20027;-34
2022/10/21 08:55:41;;;;;;;1.23;1.13;;;;;;;18.12;39.30;94335.81;5093137;28;20024;-34
2022/10/21 08:58:22;;;;;;;1.05;1.05;;;;;;;18.54;38.74;94330.06;5110442;28;20024;-34
2022/10/21 09:00:50;;;;;;;0.95;0.95;;;;;;;18.86;37.84;94329.78;5110850;28;20510;-34
2022/10/21 09:03:33;;;;;;;1.73;1.63;;;;;;;18.72;38.07;94327.94;5110845;28;20114;-34
2022/10/21 09:06:08;;;;;;;3.20;0.63;;;;;;;18.90;38.53;94326.56;5092718;28;20050;-34
2022/10/21 09:08:37;;;;;;;1.35;1.25;;;;;;;18.92;38.35;94323.94;5092607;28;20043;-34
2022/10/21 09:11:43;;;;;;;1.77;1.67;;;;;;;18.88;37.67;94329.22;5110728;28;20043;-34
2022/10/21 09:14:46;;;;;;;1.05;1.05;;;;;;;18.47;38.41;94332.97;5097312;28;20118;-34
2022/10/21 09:17:25;;;;;;;1.77;1.48;;;;;;;18.44;38.94;94320.88;5110566;28;20020;-34
2022/10/21 09:20:05;;;;;;;0.93;0.93;;;;;;;18.22;38.89;94319.09;5110495;28;20024;-34
2022/10/21 09:22:56;;;;;;;1.17;1.17;;;;;;;18.34;38.69;94322.13;5110612;28;20085;-34
2022/10/21 09:25:32;;;;;;;0.73;0.73;;;;;;;18.31;38.96;94314.88;5092147;28;20065;-34
2022/10/21 09:28:00;;;;;;;0.60;0.60;;;;;;;18.53;39.36;94314.63;5110507;28;20181;-34
2022/10/21 09:30:26;;;;;;;1.63;1.52;;;;;;;18.84;38.19;94312.13;5092399;28;20415;-34
2022/10/21 09:32:58;;;;;;;0.80;0.80;;;;;;;18.95;37.71;94316.44;5110759;28;20030;-34
2022/10/21 09:35:30;;;;;;;0.63;0.50;;;;;;;19.19;38.06;94307.81;5092299;28;20411;-34
2022/10/21 09:38:25;;;;;;;0.77;0.77;;;;;;;19.76;37.07;94315.59;5110453;28;20520;-34
2022/10/21 09:40:57;;;;;;;1.45;0.63;;;;;;;19.96;36.01;94316.34;5110084;28;20036;-34
2022/10/21 09:43:24;;;;;;;1.15;1.13;;;;;;;20.12;35.60;94295.81;5093368;28;20020;-34
2022/10/21 09:45:50;;;;;;;0.73;0.73;;;;;;;19.82;35.77;94281.66;5110709;28;20027;-35
2022/10/21 09:48:18;;;;;;;1.00;0.88;;;;;;;20.23;35.67;94300.13;5110405;28;20418;-34
2022/10/21 09:50:52;;;;;;;1.00;1.00;;;;;;;20.24;35.47;94293.19;5110379;28;20084;-34
2022/10/21 09:53:21;;;;;;;3.63;2.25;;;;;;;20.67;34.78;94294.88;5110341;28;20032;-34
2022/10/21 09:55:49;;;;;;;1.50;1.40;;;;;;;21.17;34.41;94296.91;5110334;28;20031;-34
2022/10/21 09:58:27;;;;;;;0.93;0.93;;;;;;;21.16;33.72;94281.41;5092413;28;20020;-34
2022/10/21 10:00:53;;;;;;;1.30;1.25;;;;;;;21.52;33.77;94278.97;5110239;28;20034;-34
2022/10/21 10:03:35;;;;;;;0.95;0.95;;;;;;;21.98;33.12;94275.72;5110280;28;20028;-34
2022/10/21 10:06:03;;;;;;;1.45;1.35;;;;;;;22.04;32.25;94269.72;5091961;28;20110;-35
2022/10/21 10:08:28;;;;;;;1.00;0.95;;;;;;;21.95;31.89;94262.84;5110542;28;20034;-34
2022/10/21 10:11:10;;;;;;;0.63;0.63;;;;;;;21.68;32.24;94259.63;5112743;28;20509;-35
2022/10/21 10:13:37;;;;;;;0.93;0.73;;;;;;;20.93;33.23;94265.81;5114290;28;20457;-34
2022/10/21 10:16:27;;;;;;;0.70;0.70;;;;;;;21.28;32.96;94262.56;5113937;28;20035;-34
2022/10/21 10:19:15;;;;;;;0.47;0.30;;;;;;;21.69;32.37;94259.03;5114072;28;20031;-34
2022/10/21 10:21:41;;;;;;;0.65;0.65;;;;;;;21.92;32.12;94258.41;5114192;28;20024;-34
2022/10/21 10:24:15;;;;;;;1.48;1.38;;;;;;;21.61;32.56;94263.38;5113646;28;20080;-34
2022/10/21 10:26:41;;;;;;;1.50;0.95;;;;;;;21.46;32.76;94250.44;5113447;28;20027;-34
2022/10/21 10:29:18;;;;;;;1.27;1.17;;;;;;;22.06;32.38;94259.34;5095428;28;20550;-34
2022/10/21 10:31:49;;;;;;;0.75;0.75;;;;;;;22.55;31.70;94249.81;5113959;28;20039;-34
2022/10/21 10:34:35;;;;;;;2.03;1.35;;;;;;;22.93;30.92;94247.94;5113539;28;20034;-34
2022/10/21 10:37:16;;;;;;;1.17;1.02;;;;;;;23.34;30.20;94251.88;5113448;28;20122;-34
2022/10/21 10:39:45;;;;;;;0.85;0.85;;;;;;;23.41;29.70;94250.13;5095295;28;20023;-34
2022/10/21 10:42:25;;;;;;;0.80;0.80;;;;;;;23.81;29.58;94244.78;5113376;28;20168;-34
2022/10/21 10:44:54;;;;;;;0.35;0.35;;;;;;;24.57;28.13;94236.34;5113714;28;20084;-35
2022/10/21 10:47:25;;;;;;;2.60;2.38;;;;;;;24.46;27.94;94223.75;5095160;28;20616;-35
2022/10/21 10:49:51;;;;;;;1.60;1.50;;;;;;;24.69;28.23;94229.25;5113269;28;20038;-34
2022/10/21 10:52:23;;;;;;;1.40;1.10;;;;;;;24.47;27.47;94230.16;5113253;28;20028;-34
2022/10/21 10:55:11;;;;;;;0.65;0.40;;;;;;;23.57;28.73;94234.91;5113152;28;20102;-34
2022/10/21 10:57:41;;;;;;;1.75;1.58;;;;;;;23.37;28.91;94241.44;5113018;28;20453;-35
2022/10/21 11:00:18;;;;;;;4.78;2.03;;;;;;;23.03;29.47;94212.66;5094917;28;20031;-34
2022/10/21 11:02:58;;;;;;;0.88;0.88;;;;;;;22.99;29.35;94237.03;5113013;28;20495;-35
2022/10/21 11:05:24;;;;;;;0.63;0.63;;;;;;;22.97;29.73;94231.28;5113267;28;20055;-34
2022/10/21 11:07:54;;;;;;;1.00;0.90;;;;;;;23.72;28.53;94240.00;5112719;28;20577;-34
2022/10/21 11:10:35;;;;;;;0.80;0.47;;;;;;;23.87;28.06;94236.66;5112921;28;20495;-34
2022/10/21 11:13:03;;;;;;;1.70;1.27;;;;;;;24.01;28.38;94233.91;5094900;28;20099;-34
2022/10/21 11:15:43;;;;;;;0.65;0.65;;;;;;;24.16;27.76;94233.38;5094659;28;20099;-34
2022/10/21 11:18:25;;;;;;;1.23;1.13;;;;;;;24.28;28.00;94222.75;5094848;28;20465;-34
2022/10/21 11:21:09;;;;;;;1.60;1.50;;;;;;;24.75;26.40;94206.31;5112736;28;20042;-34
2022/10/21 11:23:46;;;;;;;0.82;0.82;;;;;;;24.69;26.07;94206.66;5112926;28;20028;-35
2022/10/21 11:26:15;;;;;;;0.82;0.82;;;;;;;23.73;27.47;94206.91;5112136;28;20035;-35
2022/10/21 11:28:53;;;;;;;0.80;0.80;;;;;;;23.46;28.02;94201.84;5112403;28;20020;-35
2022/10/21 11:31:23;;;;;;;1.10;0.63;;;;;;;23.67;27.63;94198.81;5112508;28;20077;-34
2022/10/21 11:33:59;;;;;;;0.70;0.70;;;;;;;23.38;28.05;94204.19;5094602;28;20078;-34
2022/10/21 11:36:37;;;;;;;0.52;0.52;;;;;;;23.34;28.44;94206.78;5112379;28;20507;-34
2022/10/21 11:39:34;;;;;;;0.25;0.25;;;;;;;23.08;28.24;94202.38;5112271;28;20024;-35
2022/10/21 11:42:37;;;;;;;2.03;1.05;;;;;;;22.74;28.67;94195.38;5112592;28;20080;-34
2022/10/21 11:45:29;;;;;;;3.97;0.77;;;;;;;21.96;29.77;94191.19;5112189;28;20023;-34
2022/10/21 11:48:23;;;;;;;0.52;0.52;;;;;;;21.64;30.41;94187.03;5094351;28;20019;-34
2022/10/21 11:50:58;;;;;;;1.25;1.15;;;;;;;22.05;29.16;94189.63;5094339;28;20031;-34
2022/10/21 11:53:49;;;;;;;0.85;0.85;;;;;;;21.87;29.50;94180.78;5093905;28;20032;-34